createdAt,value
2023-02-13T00:00:35.317Z,7.69
2023-02-13T00:03:38.638Z,7.70
2023-02-13T00:06:42.268Z,7.71
2023-02-13T00:09:45.453Z,7.71
2023-02-13T00:12:50.003Z,7.72
2023-02-13T00:16:01.318Z,7.63
2023-02-13T00:19:05.050Z,7.62
2023-02-13T00:22:08.306Z,7.60
2023-02-13T00:25:11.878Z,7.56
2023-02-13T00:28:16.412Z,7.60
2023-02-13T00:31:25.248Z,7.55
2023-02-13T00:34:28.962Z,7.52
2023-02-13T00:37:32.191Z,7.51
2023-02-13T00:40:35.490Z,7.48
2023-02-13T00:43:40.478Z,7.46
2023-02-13T00:46:44.125Z,7.50
2023-02-13T00:49:47.929Z,7.47
2023-02-13T00:52:51.203Z,7.49
2023-02-13T00:55:56.423Z,7.45
2023-02-13T00:59:00.979Z,7.48
2023-02-13T01:02:04.636Z,7.43
2023-02-13T01:05:11.059Z,7.43
2023-02-13T01:08:19.032Z,7.43
2023-02-13T01:11:23.332Z,7.40
2023-02-13T01:14:28.137Z,7.38
2023-02-13T01:17:31.899Z,7.36
2023-02-13T01:20:35.081Z,7.34
2023-02-13T01:23:39.806Z,7.37
2023-02-13T01:26:42.932Z,7.37
2023-02-13T01:29:47.861Z,7.35
2023-02-13T01:32:50.889Z,7.28
2023-02-13T01:35:54.659Z,7.31
2023-02-13T01:39:00.379Z,7.34
2023-02-13T01:42:03.817Z,7.33
2023-02-13T01:45:24.341Z,7.35
2023-02-13T01:48:30.849Z,7.35
2023-02-13T01:51:38.266Z,7.31
2023-02-13T01:54:45.249Z,7.35
2023-02-13T01:57:57.563Z,7.33
2023-02-13T02:01:03.341Z,7.31
2023-02-13T02:04:12.898Z,7.31
2023-02-13T02:07:22.963Z,7.30
2023-02-13T02:10:27.235Z,7.31
2023-02-13T02:13:30.413Z,7.28
2023-02-13T02:16:41.106Z,7.29
2023-02-13T02:19:53.321Z,7.28
2023-02-13T02:23:48.939Z,7.23
2023-02-13T02:27:27.314Z,7.18
2023-02-13T02:31:15.601Z,7.20
2023-02-13T02:34:30.372Z,7.18
2023-02-13T02:37:55.643Z,7.16
2023-02-13T02:41:11.363Z,7.15
2023-02-13T02:44:32.915Z,7.16
2023-02-13T02:48:04.747Z,7.12
2023-02-13T02:51:21.288Z,7.10
2023-02-13T02:54:53.007Z,7.13
2023-02-13T02:58:22.481Z,7.16
2023-02-13T03:01:48.399Z,7.07
2023-02-13T03:05:18.073Z,7.02
2023-02-13T03:08:37.179Z,6.98
2023-02-13T03:11:59.558Z,6.99
2023-02-13T03:15:02.936Z,7.00
2023-02-13T03:18:24.016Z,6.97
2023-02-13T03:21:57.361Z,6.98
2023-02-13T03:25:13.045Z,6.97
2023-02-13T03:28:43.191Z,6.97
2023-02-13T03:31:54.163Z,6.92
2023-02-13T03:35:34.854Z,6.94
2023-02-13T03:38:45.525Z,6.94
2023-02-13T03:41:55.168Z,6.92
2023-02-13T03:45:24.165Z,6.93
2023-02-13T03:48:50.784Z,6.85
2023-02-13T03:52:00.018Z,6.88
2023-02-13T03:55:26.803Z,6.91
2023-02-13T03:58:53.666Z,6.89
2023-02-13T04:02:07.938Z,6.86
2023-02-13T04:05:17.544Z,6.87
2023-02-13T04:08:20.743Z,6.85
2023-02-13T04:11:35.016Z,6.82
2023-02-13T04:14:46.789Z,6.82
2023-02-13T04:17:56.468Z,6.80
2023-02-13T04:21:03.717Z,6.77
2023-02-13T04:24:07.926Z,6.82
2023-02-13T04:27:14.971Z,6.81
2023-02-13T04:30:20.115Z,6.82
2023-02-13T04:33:52.640Z,6.82
2023-02-13T04:37:19.141Z,6.85
2023-02-13T04:40:26.366Z,6.84
2023-02-13T04:43:58.682Z,6.84
2023-02-13T04:47:47.594Z,6.88
2023-02-13T04:51:18.053Z,6.95
2023-02-13T04:54:26.520Z,6.94
2023-02-13T04:57:30.105Z,6.90
2023-02-13T05:00:33.295Z,6.91
2023-02-13T05:03:37.675Z,6.91
2023-02-13T05:06:41.010Z,6.94
2023-02-13T05:09:44.023Z,6.92
2023-02-13T05:12:47.204Z,6.92
2023-02-13T05:15:52.543Z,6.93
2023-02-13T05:18:57.034Z,6.94
2023-02-13T05:22:17.882Z,6.96
2023-02-13T05:25:21.046Z,6.93
2023-02-13T05:28:41.668Z,6.92
2023-02-13T05:31:44.821Z,6.90
2023-02-13T05:34:49.296Z,6.91
2023-02-13T05:37:52.444Z,6.89
2023-02-13T05:40:56.225Z,6.90
2023-02-13T05:43:59.881Z,6.92
2023-02-13T05:47:06.416Z,6.97
2023-02-13T05:50:11.993Z,6.92
2023-02-13T05:53:15.105Z,6.93
2023-02-13T05:56:18.248Z,6.92
2023-02-13T05:59:23.752Z,6.93
2023-02-13T06:02:27.583Z,6.93
2023-02-13T06:05:32.063Z,6.95
2023-02-13T06:08:35.232Z,6.95
2023-02-13T06:11:38.769Z,6.96
2023-02-13T06:14:41.837Z,6.98
2023-02-13T06:17:44.985Z,7.02
2023-02-13T06:20:49.533Z,6.99
2023-02-13T06:23:53.037Z,7.00
2023-02-13T06:27:02.114Z,6.98
2023-02-13T06:30:09.654Z,6.97
2023-02-13T06:33:12.888Z,7.05
2023-02-13T06:36:17.475Z,7.06
2023-02-13T06:39:21.241Z,7.07
2023-02-13T06:42:24.468Z,7.00
2023-02-13T06:45:27.804Z,7.06
2023-02-13T06:48:31.192Z,6.99
2023-02-13T06:51:35.812Z,7.02
2023-02-13T06:54:47.445Z,6.99
2023-02-13T06:57:51.316Z,6.97
2023-02-13T07:00:54.638Z,6.95
2023-02-13T07:03:57.824Z,6.99
2023-02-13T07:07:02.558Z,6.97
2023-02-13T07:10:12.800Z,6.96
2023-02-13T07:13:16.151Z,7.02
2023-02-13T07:16:21.719Z,7.05
2023-02-13T07:19:25.405Z,7.02
2023-02-13T07:22:30.152Z,7.05
2023-02-13T07:25:33.730Z,6.99
2023-02-13T07:28:36.988Z,7.02
2023-02-13T07:31:40.418Z,7.00
2023-02-13T07:34:59.594Z,6.99
2023-02-13T07:38:06.335Z,7.01
2023-02-13T07:41:10.428Z,6.99
2023-02-13T07:44:16.287Z,6.99
2023-02-13T07:47:20.347Z,7.04
2023-02-13T07:50:23.742Z,7.03
2023-02-13T07:53:28.216Z,7.06
2023-02-13T07:56:31.316Z,7.05
2023-02-13T07:59:34.418Z,7.06
2023-02-13T08:02:37.477Z,7.10
2023-02-13T08:05:41.201Z,7.07
2023-02-13T08:08:45.633Z,7.10
2023-02-13T08:11:53.888Z,7.17
2023-02-13T08:14:57.180Z,7.17
2023-02-13T08:18:00.322Z,7.20
2023-02-13T08:21:03.876Z,7.20
2023-02-13T08:24:09.207Z,7.18
2023-02-13T08:27:13.798Z,7.22
2023-02-13T08:30:17.580Z,7.28
2023-02-13T08:33:20.899Z,7.30
2023-02-13T08:36:24.400Z,7.33
2023-02-13T08:39:29.596Z,7.34
2023-02-13T08:42:32.657Z,7.31
2023-02-13T08:45:36.842Z,7.36
2023-02-13T08:48:40.552Z,7.35
2023-02-13T08:51:43.710Z,7.42
2023-02-13T08:54:48.236Z,7.46
2023-02-13T08:57:51.272Z,7.46
2023-02-13T09:00:54.552Z,7.45
2023-02-13T09:03:57.649Z,7.47
2023-02-13T09:07:00.760Z,7.45
2023-02-13T09:10:06.141Z,7.47
2023-02-13T09:13:09.292Z,7.47
2023-02-13T09:16:12.781Z,7.47
2023-02-13T09:19:16.047Z,7.45
2023-02-13T09:22:20.259Z,7.37
2023-02-13T09:25:27.495Z,7.38
2023-02-13T09:28:31.977Z,7.36
2023-02-13T09:31:35.302Z,7.37
2023-02-13T09:34:38.962Z,7.33
2023-02-13T09:37:42.124Z,7.31
2023-02-13T09:40:52.639Z,7.33
2023-02-13T09:44:00.218Z,7.35
2023-02-13T09:47:13.081Z,7.31
2023-02-13T09:50:22.333Z,7.25
2023-02-13T09:53:29.228Z,7.18
2023-02-13T09:56:49.931Z,7.22
2023-02-13T09:59:59.875Z,7.18
2023-02-13T10:03:20.577Z,7.15
2023-02-13T10:06:31.435Z,7.16
2023-02-13T10:09:45.642Z,7.16
2023-02-13T10:13:07.994Z,7.09
2023-02-13T10:16:17.000Z,7.09
2023-02-13T10:19:34.161Z,7.17
2023-02-13T10:22:44.388Z,7.12
2023-02-13T10:25:53.777Z,7.21
2023-02-13T10:29:23.559Z,7.26
2023-02-13T10:32:39.470Z,7.26
2023-02-13T10:35:47.147Z,7.17
2023-02-13T10:38:59.232Z,7.17
2023-02-13T10:42:15.612Z,7.17
2023-02-13T10:45:43.862Z,7.20
2023-02-13T10:49:01.730Z,7.19
2023-02-13T10:52:18.715Z,7.22
2023-02-13T10:55:44.616Z,7.24
2023-02-13T10:59:06.432Z,7.24
2023-02-13T11:02:25.085Z,7.22
2023-02-13T11:05:33.864Z,7.25
2023-02-13T11:08:43.265Z,7.22
2023-02-13T11:11:46.577Z,7.27
2023-02-13T11:15:00.230Z,7.29
2023-02-13T11:18:18.322Z,7.42
2023-02-13T11:21:38.686Z,7.42
2023-02-13T11:24:50.672Z,7.44
2023-02-13T11:28:11.455Z,7.45
2023-02-13T11:31:25.572Z,7.44
2023-02-13T11:34:33.908Z,7.48
2023-02-13T11:37:37.007Z,7.50
2023-02-13T11:40:41.794Z,7.48
2023-02-13T11:43:49.418Z,7.50
2023-02-13T11:46:55.431Z,7.46
2023-02-13T11:50:00.040Z,7.48
2023-02-13T11:53:09.669Z,7.49
2023-02-13T11:56:17.152Z,7.56
2023-02-13T11:59:24.692Z,7.65
2023-02-13T12:02:30.327Z,7.61
2023-02-13T12:05:34.953Z,7.64
2023-02-13T12:08:44.280Z,7.65
2023-02-13T12:11:51.315Z,7.60
2023-02-13T12:14:54.621Z,7.64
2023-02-13T12:18:10.998Z,7.68
2023-02-13T12:21:30.054Z,7.75
2023-02-13T12:25:18.731Z,7.75
2023-02-13T12:28:30.098Z,7.71
2023-02-13T12:31:50.546Z,7.76
2023-02-13T12:35:40.229Z,7.77
2023-02-13T12:44:33.118Z,7.73
2023-02-13T12:51:38.040Z,7.87
2023-02-13T12:54:59.903Z,7.76
2023-02-13T12:58:27.450Z,7.82
2023-02-13T13:01:59.346Z,7.82
2023-02-13T13:05:21.529Z,7.76
2023-02-13T13:08:44.491Z,7.71
2023-02-13T13:12:34.408Z,7.71
2023-02-13T13:15:48.367Z,7.66
2023-02-13T13:19:08.502Z,7.69
2023-02-13T13:22:23.839Z,7.77
2023-02-13T13:25:37.517Z,7.81
2023-02-13T13:28:45.087Z,7.74
2023-02-13T13:31:55.275Z,7.76
2023-02-13T13:35:05.351Z,7.78
2023-02-13T13:38:18.211Z,7.75
2023-02-13T13:41:31.263Z,7.76
2023-02-13T13:45:23.592Z,7.80
2023-02-13T13:48:57.088Z,7.87
2023-02-13T13:52:21.963Z,7.72
2023-02-13T13:56:05.904Z,7.75
2023-02-13T13:59:18.778Z,7.75
2023-02-13T14:02:51.074Z,7.74
2023-02-13T14:06:09.604Z,7.77
2023-02-13T14:09:40.695Z,7.65
2023-02-13T14:12:52.243Z,7.59
2023-02-13T14:15:55.910Z,7.57
2023-02-13T14:18:59.420Z,7.59
2023-02-13T14:22:33.057Z,7.52
2023-02-13T14:25:38.866Z,7.51
2023-02-13T14:29:00.801Z,7.54
2023-02-13T14:32:18.093Z,7.60
2023-02-13T14:35:28.493Z,7.61
2023-02-13T14:38:32.417Z,7.56
2023-02-13T14:42:01.892Z,7.58
2023-02-13T14:45:16.774Z,7.60
2023-02-13T14:48:23.717Z,7.52
2023-02-13T14:51:35.949Z,7.53
2023-02-13T14:54:46.724Z,7.51
2023-02-13T14:57:55.733Z,7.52
2023-02-13T15:01:05.202Z,7.50
2023-02-13T15:04:17.703Z,7.53
2023-02-13T15:07:25.800Z,7.48
2023-02-13T15:10:41.178Z,7.45
2023-02-13T15:13:45.849Z,7.39
2023-02-13T15:16:55.298Z,7.37
2023-02-13T15:20:06.437Z,7.39
2023-02-13T15:23:21.135Z,7.34
2023-02-13T15:26:29.218Z,7.39
2023-02-13T15:29:47.906Z,7.40
2023-02-13T15:32:57.252Z,7.34
2023-02-13T15:36:02.691Z,7.37
2023-02-13T15:39:13.329Z,7.36
2023-02-13T15:42:16.616Z,7.35
2023-02-13T15:45:26.874Z,7.28
2023-02-13T15:48:31.079Z,7.29
2023-02-13T15:51:34.794Z,7.25
2023-02-13T15:54:38.332Z,7.22
2023-02-13T15:57:42.112Z,7.21
2023-02-13T16:00:46.696Z,7.19
2023-02-13T16:03:59.462Z,7.17
2023-02-13T16:07:04.626Z,7.19
2023-02-13T16:10:16.793Z,7.22
2023-02-13T16:13:20.752Z,7.13
2023-02-13T16:16:26.214Z,7.13
2023-02-13T16:19:46.408Z,7.11
2023-02-13T16:22:52.936Z,7.09
2023-02-13T16:26:03.480Z,7.11
2023-02-13T16:29:14.271Z,7.14
2023-02-13T16:32:29.991Z,7.09
2023-02-13T16:35:38.832Z,7.10
2023-02-13T16:38:45.936Z,7.09
2023-02-13T16:41:53.174Z,7.09
2023-02-13T16:45:23.972Z,7.11
2023-02-13T16:48:28.661Z,7.09
2023-02-13T16:51:38.295Z,7.07
2023-02-13T16:54:53.076Z,7.08
2023-02-13T16:58:03.604Z,7.06
2023-02-13T17:01:07.329Z,7.00
2023-02-13T17:04:23.787Z,6.99
2023-02-13T17:07:29.350Z,7.01
2023-02-13T17:10:37.685Z,7.00
2023-02-13T17:13:42.160Z,6.99
2023-02-13T17:16:45.373Z,6.99
2023-02-13T17:19:50.464Z,6.98
2023-02-13T17:22:55.704Z,6.98
2023-02-13T17:25:58.888Z,6.98
2023-02-13T17:29:02.060Z,6.97
2023-02-13T17:32:05.665Z,6.95
2023-02-13T17:35:11.908Z,6.95
2023-02-13T17:38:15.331Z,6.97
2023-02-13T17:41:18.745Z,6.99
2023-02-13T17:44:30.669Z,7.00
2023-02-13T17:47:33.791Z,6.97
2023-02-13T17:50:39.251Z,6.97
2023-02-13T17:53:42.584Z,6.97
2023-02-13T17:56:45.844Z,7.00
2023-02-13T17:59:49.143Z,6.96
2023-02-13T18:02:52.699Z,6.96
2023-02-13T18:05:57.207Z,6.94
2023-02-13T18:09:00.432Z,6.94
2023-02-13T18:12:05.959Z,6.95
2023-02-13T18:15:10.448Z,6.94
2023-02-13T18:18:15.850Z,6.90
2023-02-13T18:21:23.508Z,6.91
2023-02-13T18:24:30.625Z,6.86
2023-02-13T18:27:33.828Z,6.90
2023-02-13T18:30:37.061Z,6.85
2023-02-13T18:33:40.324Z,6.87
2023-02-13T18:36:50.658Z,6.84
2023-02-13T18:39:54.404Z,6.82
2023-02-13T18:42:58.028Z,6.84
2023-02-13T18:46:01.330Z,6.82
2023-02-13T18:49:08.780Z,6.81
2023-02-13T18:52:13.718Z,6.82
2023-02-13T18:55:17.152Z,6.83
2023-02-13T18:58:20.477Z,6.80
2023-02-13T19:01:24.170Z,6.77
2023-02-13T19:04:27.808Z,6.73
2023-02-13T19:07:32.667Z,6.72
2023-02-13T19:10:35.894Z,6.72
2023-02-13T19:13:43.244Z,6.72
2023-02-13T19:16:46.382Z,6.69
2023-02-13T19:19:50.526Z,6.70
2023-02-13T19:22:56.530Z,6.69
2023-02-13T19:25:59.986Z,6.69
2023-02-13T19:29:03.728Z,6.65
2023-02-13T19:32:06.860Z,6.65
2023-02-13T19:35:13.291Z,6.64
2023-02-13T19:38:17.809Z,6.63
2023-02-13T19:41:25.762Z,6.64
2023-02-13T19:44:28.930Z,6.63
2023-02-13T19:47:35.204Z,6.60
2023-02-13T19:50:39.092Z,6.60
2023-02-13T19:53:43.770Z,6.60
2023-02-13T19:56:47.641Z,6.58
2023-02-13T19:59:50.944Z,6.55
2023-02-13T20:02:56.670Z,6.55
2023-02-13T20:06:05.653Z,6.58
2023-02-13T20:09:13.749Z,6.57
2023-02-13T20:12:17.165Z,6.55
2023-02-13T20:15:23.770Z,6.58
2023-02-13T20:18:27.047Z,6.56
2023-02-13T20:21:30.652Z,6.52
2023-02-13T20:24:35.355Z,6.51
2023-02-13T20:27:42.401Z,6.52
2023-02-13T20:30:46.338Z,6.50
2023-02-13T20:33:51.642Z,6.51
2023-02-13T20:36:56.841Z,6.51
2023-02-13T20:40:05.639Z,6.48
2023-02-13T20:43:08.836Z,6.47
2023-02-13T20:46:13.386Z,6.44
2023-02-13T20:49:21.157Z,6.45
2023-02-13T20:52:24.395Z,6.39
2023-02-13T20:55:32.735Z,6.38
2023-02-13T20:58:36.188Z,6.39
2023-02-13T21:01:41.418Z,6.41
2023-02-13T21:04:44.577Z,6.38
2023-02-13T21:07:48.544Z,6.35
2023-02-13T21:10:52.959Z,6.30
2023-02-13T21:13:57.194Z,6.28
2023-02-13T21:17:00.532Z,6.27
2023-02-13T21:20:05.553Z,6.24
2023-02-13T21:23:08.667Z,6.23
2023-02-13T21:26:17.064Z,6.20
2023-02-13T21:29:20.763Z,6.18
2023-02-13T21:32:23.934Z,6.19
2023-02-13T21:35:27.191Z,6.11
2023-02-13T21:38:30.404Z,6.08
2023-02-13T21:41:37.107Z,6.08
2023-02-13T21:44:40.264Z,6.10
2023-02-13T21:47:44.683Z,6.08
2023-02-13T21:50:47.739Z,6.07
2023-02-13T21:53:51.243Z,6.10
2023-02-13T21:56:55.664Z,6.13
2023-02-13T21:59:58.724Z,6.06
2023-02-13T22:03:01.871Z,5.98
2023-02-13T22:06:05.640Z,6.03
2023-02-13T22:09:11.936Z,6.07
2023-02-13T22:12:16.342Z,6.09
2023-02-13T22:15:19.598Z,6.09
2023-02-13T22:18:22.904Z,6.05
2023-02-13T22:21:28.613Z,6.00
2023-02-13T22:24:32.699Z,5.97
2023-02-13T22:27:37.370Z,5.93
2023-02-13T22:30:40.657Z,5.98
2023-02-13T22:33:47.610Z,5.94
2023-02-13T22:36:50.858Z,5.92
2023-02-13T22:39:53.923Z,5.96
2023-02-13T22:42:58.349Z,5.96
2023-02-13T22:46:06.444Z,5.94
2023-02-13T22:49:09.562Z,5.96
2023-02-13T22:52:12.746Z,5.93
2023-02-13T22:55:15.779Z,5.85
2023-02-13T22:58:20.184Z,5.82
2023-02-13T23:01:26.960Z,5.82
2023-02-13T23:04:30.329Z,5.85
2023-02-13T23:07:33.634Z,5.81
2023-02-13T23:10:37.049Z,5.82
2023-02-13T23:13:42.942Z,5.85
2023-02-13T23:17:03.305Z,5.81
2023-02-13T23:20:08.628Z,5.86
2023-02-13T23:23:12.853Z,5.85
2023-02-13T23:26:17.173Z,5.86
2023-02-13T23:29:21.775Z,5.79
2023-02-13T23:32:25.627Z,5.79
2023-02-13T23:35:28.893Z,5.76
2023-02-13T23:38:32.177Z,5.76
2023-02-13T23:41:38.168Z,5.81
2023-02-13T23:44:42.765Z,5.80
2023-02-13T23:47:45.979Z,5.81
2023-02-13T23:50:53.278Z,5.83
2023-02-13T23:53:57.388Z,5.79
2023-02-13T23:57:01.416Z,5.78
